sensor_id;sensor_type;location;lat;lon;timestamp;P1;durP1;ratioP1;P2;durP2;ratioP2
31638;SDS011;18248;51.522;7.020;2022-11-18T00:02:19;8.43;;;2.38;;
31638;SDS011;18248;51.522;7.020;2022-11-18T00:05:18;9.52;;;2.45;;
31638;SDS011;18248;51.522;7.020;2022-11-18T00:08:16;9.00;;;2.95;;
31638;SDS011;18248;51.522;7.020;2022-11-18T00:11:16;6.80;;;1.98;;
31638;SDS011;18248;51.522;7.020;2022-11-18T00:14:34;4.20;;;1.85;;
31638;SDS011;18248;51.522;7.020;2022-11-18T00:17:33;6.00;;;2.13;;
31638;SDS011;18248;51.522;7.020;2022-11-18T00:20:32;6.28;;;2.10;;
31638;SDS011;18248;51.522;7.020;2022-11-18T00:23:34;6.10;;;1.58;;
31638;SDS011;18248;51.522;7.020;2022-11-18T00:26:32;7.15;;;1.83;;
31638;SDS011;18248;51.522;7.020;2022-11-18T00:29:31;7.88;;;2.22;;
31638;SDS011;18248;51.522;7.020;2022-11-18T00:32:29;5.47;;;1.85;;
31638;SDS011;18248;51.522;7.020;2022-11-18T00:35:28;5.15;;;1.70;;
31638;SDS011;18248;51.522;7.020;2022-11-18T00:38:28;7.75;;;1.73;;
31638;SDS011;18248;51.522;7.020;2022-11-18T00:41:26;5.20;;;1.95;;
31638;SDS011;18248;51.522;7.020;2022-11-18T00:44:46;6.60;;;1.90;;
31638;SDS011;18248;51.522;7.020;2022-11-18T00:47:45;6.28;;;1.80;;
31638;SDS011;18248;51.522;7.020;2022-11-18T00:50:44;5.85;;;1.80;;
31638;SDS011;18248;51.522;7.020;2022-11-18T00:53:42;6.63;;;1.83;;
31638;SDS011;18248;51.522;7.020;2022-11-18T00:56:41;7.53;;;1.90;;
31638;SDS011;18248;51.522;7.020;2022-11-18T00:59:41;5.20;;;2.00;;
31638;SDS011;18248;51.522;7.020;2022-11-18T01:02:40;6.97;;;2.25;;
31638;SDS011;18248;51.522;7.020;2022-11-18T01:05:38;5.88;;;1.90;;
31638;SDS011;18248;51.522;7.020;2022-11-18T01:08:37;11.48;;;2.45;;
31638;SDS011;18248;51.522;7.020;2022-11-18T01:11:35;8.05;;;2.08;;
31638;SDS011;18248;51.522;7.020;2022-11-18T01:14:53;6.70;;;1.90;;
31638;SDS011;18248;51.522;7.020;2022-11-18T01:17:53;8.45;;;2.35;;
31638;SDS011;18248;51.522;7.020;2022-11-18T01:20:58;6.45;;;2.00;;
31638;SDS011;18248;51.522;7.020;2022-11-18T01:23:58;6.50;;;2.17;;
31638;SDS011;18248;51.522;7.020;2022-11-18T01:26:56;6.05;;;2.25;;
31638;SDS011;18248;51.522;7.020;2022-11-18T01:29:55;7.68;;;2.22;;
31638;SDS011;18248;51.522;7.020;2022-11-18T01:32:55;8.38;;;2.60;;
31638;SDS011;18248;51.522;7.020;2022-11-18T01:35:55;6.78;;;2.03;;
31638;SDS011;18248;51.522;7.020;2022-11-18T01:38:54;9.68;;;2.42;;
31638;SDS011;18248;51.522;7.020;2022-11-18T01:41:53;7.43;;;2.40;;
31638;SDS011;18248;51.522;7.020;2022-11-18T01:44:56;6.75;;;1.88;;
31638;SDS011;18248;51.522;7.020;2022-11-18T01:51:22;8.90;;;2.08;;
31638;SDS011;18248;51.522;7.020;2022-11-18T01:54:28;7.35;;;2.35;;
31638;SDS011;18248;51.522;7.020;2022-11-18T01:57:29;7.13;;;2.03;;
31638;SDS011;18248;51.522;7.020;2022-11-18T02:00:30;9.60;;;2.08;;
31638;SDS011;18248;51.522;7.020;2022-11-18T02:03:29;6.20;;;2.20;;
31638;SDS011;18248;51.522;7.020;2022-11-18T02:06:28;6.60;;;1.73;;
31638;SDS011;18248;51.522;7.020;2022-11-18T02:09:27;5.75;;;1.70;;
31638;SDS011;18248;51.522;7.020;2022-11-18T02:12:26;8.80;;;2.22;;
31638;SDS011;18248;51.522;7.020;2022-11-18T02:15:44;8.93;;;2.25;;
31638;SDS011;18248;51.522;7.020;2022-11-18T02:18:55;5.47;;;2.25;;
31638;SDS011;18248;51.522;7.020;2022-11-18T02:25:28;8.55;;;2.15;;
31638;SDS011;18248;51.522;7.020;2022-11-18T02:35:16;4.72;;;1.60;;
31638;SDS011;18248;51.522;7.020;2022-11-18T02:38:30;5.63;;;2.03;;
31638;SDS011;18248;51.522;7.020;2022-11-18T02:41:34;5.70;;;1.83;;
31638;SDS011;18248;51.522;7.020;2022-11-18T02:44:36;5.50;;;1.77;;
31638;SDS011;18248;51.522;7.020;2022-11-18T02:47:37;7.07;;;2.10;;
31638;SDS011;18248;51.522;7.020;2022-11-18T02:50:38;5.72;;;2.28;;
31638;SDS011;18248;51.522;7.020;2022-11-18T02:53:39;8.68;;;2.08;;
31638;SDS011;18248;51.522;7.020;2022-11-18T02:56:40;7.30;;;2.25;;
31638;SDS011;18248;51.522;7.020;2022-11-18T02:59:40;7.72;;;2.20;;
31638;SDS011;18248;51.522;7.020;2022-11-18T03:02:43;7.32;;;2.55;;
31638;SDS011;18248;51.522;7.020;2022-11-18T03:09:10;8.32;;;2.30;;
31638;SDS011;18248;51.522;7.020;2022-11-18T03:15:42;9.07;;;3.63;;
31638;SDS011;18248;51.522;7.020;2022-11-18T03:18:54;8.50;;;3.40;;
31638;SDS011;18248;51.522;7.020;2022-11-18T03:22:09;16.90;;;5.65;;
31638;SDS011;18248;51.522;7.020;2022-11-18T03:28:38;13.82;;;4.43;;
31638;SDS011;18248;51.522;7.020;2022-11-18T03:31:51;9.77;;;3.63;;
31638;SDS011;18248;51.522;7.020;2022-11-18T03:35:13;12.95;;;3.90;;
31638;SDS011;18248;51.522;7.020;2022-11-18T03:38:18;11.02;;;3.55;;
31638;SDS011;18248;51.522;7.020;2022-11-18T03:41:22;11.13;;;3.60;;
31638;SDS011;18248;51.522;7.020;2022-11-18T03:44:22;15.43;;;4.05;;
31638;SDS011;18248;51.522;7.020;2022-11-18T03:47:34;14.57;;;3.97;;
31638;SDS011;18248;51.522;7.020;2022-11-18T03:50:42;9.00;;;3.20;;
31638;SDS011;18248;51.522;7.020;2022-11-18T03:53:52;11.35;;;3.45;;
31638;SDS011;18248;51.522;7.020;2022-11-18T03:59:58;10.75;;;3.65;;
31638;SDS011;18248;51.522;7.020;2022-11-18T04:03:06;10.48;;;4.63;;
31638;SDS011;18248;51.522;7.020;2022-11-18T04:06:10;12.52;;;4.25;;
31638;SDS011;18248;51.522;7.020;2022-11-18T04:09:56;10.57;;;4.53;;
31638;SDS011;18248;51.522;7.020;2022-11-18T04:13:01;12.85;;;4.50;;
31638;SDS011;18248;51.522;7.020;2022-11-18T04:16:05;13.40;;;4.00;;
31638;SDS011;18248;51.522;7.020;2022-11-18T04:19:06;12.52;;;4.65;;
31638;SDS011;18248;51.522;7.020;2022-11-18T04:22:05;9.73;;;4.13;;
31638;SDS011;18248;51.522;7.020;2022-11-18T04:25:04;12.75;;;4.43;;
31638;SDS011;18248;51.522;7.020;2022-11-18T04:28:03;17.40;;;4.75;;
31638;SDS011;18248;51.522;7.020;2022-11-18T04:31:02;10.73;;;4.28;;
31638;SDS011;18248;51.522;7.020;2022-11-18T04:34:02;14.25;;;4.95;;
31638;SDS011;18248;51.522;7.020;2022-11-18T04:37:00;15.05;;;4.68;;
31638;SDS011;18248;51.522;7.020;2022-11-18T04:39:59;12.27;;;4.38;;
31638;SDS011;18248;51.522;7.020;2022-11-18T04:42:59;8.00;;;3.58;;
31638;SDS011;18248;51.522;7.020;2022-11-18T04:45:58;12.25;;;4.68;;
31638;SDS011;18248;51.522;7.020;2022-11-18T04:48:57;13.63;;;4.75;;
31638;SDS011;18248;51.522;7.020;2022-11-18T04:51:56;18.17;;;5.45;;
31638;SDS011;18248;51.522;7.020;2022-11-18T04:54:55;12.93;;;4.68;;
31638;SDS011;18248;51.522;7.020;2022-11-18T04:57:53;23.88;;;4.90;;
31638;SDS011;18248;51.522;7.020;2022-11-18T05:00:52;13.85;;;4.82;;
31638;SDS011;18248;51.522;7.020;2022-11-18T05:03:50;10.63;;;3.58;;
31638;SDS011;18248;51.522;7.020;2022-11-18T05:06:49;6.78;;;3.17;;
31638;SDS011;18248;51.522;7.020;2022-11-18T05:09:48;6.68;;;3.28;;
31638;SDS011;18248;51.522;7.020;2022-11-18T05:12:46;8.20;;;3.08;;
31638;SDS011;18248;51.522;7.020;2022-11-18T05:15:49;7.47;;;3.17;;
31638;SDS011;18248;51.522;7.020;2022-11-18T05:18:47;7.78;;;3.50;;
31638;SDS011;18248;51.522;7.020;2022-11-18T05:21:46;10.63;;;3.53;;
31638;SDS011;18248;51.522;7.020;2022-11-18T05:24:45;10.40;;;3.65;;
31638;SDS011;18248;51.522;7.020;2022-11-18T05:27:43;6.90;;;3.05;;
31638;SDS011;18248;51.522;7.020;2022-11-18T05:30:42;9.20;;;3.53;;
31638;SDS011;18248;51.522;7.020;2022-11-18T05:33:41;7.45;;;3.25;;
31638;SDS011;18248;51.522;7.020;2022-11-18T05:36:40;8.25;;;3.30;;
31638;SDS011;18248;51.522;7.020;2022-11-18T05:39:38;7.90;;;3.75;;
31638;SDS011;18248;51.522;7.020;2022-11-18T05:42:37;7.53;;;2.80;;
31638;SDS011;18248;51.522;7.020;2022-11-18T05:45:54;5.70;;;2.92;;
31638;SDS011;18248;51.522;7.020;2022-11-18T05:48:53;8.20;;;2.80;;
31638;SDS011;18248;51.522;7.020;2022-11-18T05:51:51;9.52;;;3.05;;
31638;SDS011;18248;51.522;7.020;2022-11-18T05:54:50;11.82;;;3.35;;
31638;SDS011;18248;51.522;7.020;2022-11-18T05:57:48;10.63;;;4.25;;
31638;SDS011;18248;51.522;7.020;2022-11-18T06:00:47;8.57;;;2.80;;
31638;SDS011;18248;51.522;7.020;2022-11-18T06:03:49;8.23;;;3.30;;
31638;SDS011;18248;51.522;7.020;2022-11-18T06:06:48;9.57;;;3.13;;
31638;SDS011;18248;51.522;7.020;2022-11-18T06:09:51;11.38;;;3.42;;
31638;SDS011;18248;51.522;7.020;2022-11-18T06:15:54;7.38;;;2.83;;
31638;SDS011;18248;51.522;7.020;2022-11-18T06:18:53;8.20;;;2.85;;
31638;SDS011;18248;51.522;7.020;2022-11-18T06:21:52;12.88;;;3.33;;
31638;SDS011;18248;51.522;7.020;2022-11-18T06:24:51;9.80;;;2.95;;
31638;SDS011;18248;51.522;7.020;2022-11-18T06:27:50;8.30;;;3.10;;
31638;SDS011;18248;51.522;7.020;2022-11-18T06:30:51;8.30;;;3.08;;
31638;SDS011;18248;51.522;7.020;2022-11-18T06:33:49;10.00;;;3.50;;
31638;SDS011;18248;51.522;7.020;2022-11-18T06:36:48;16.55;;;4.68;;
31638;SDS011;18248;51.522;7.020;2022-11-18T06:39:46;13.68;;;3.75;;
31638;SDS011;18248;51.522;7.020;2022-11-18T06:42:45;9.48;;;3.60;;
31638;SDS011;18248;51.522;7.020;2022-11-18T06:46:03;7.32;;;3.45;;
31638;SDS011;18248;51.522;7.020;2022-11-18T06:49:23;8.93;;;3.25;;
31638;SDS011;18248;51.522;7.020;2022-11-18T06:52:22;8.90;;;3.20;;
31638;SDS011;18248;51.522;7.020;2022-11-18T06:55:21;9.13;;;3.92;;
31638;SDS011;18248;51.522;7.020;2022-11-18T06:58:19;7.80;;;2.95;;
31638;SDS011;18248;51.522;7.020;2022-11-18T07:01:19;12.52;;;3.60;;
31638;SDS011;18248;51.522;7.020;2022-11-18T07:04:19;14.90;;;3.28;;
31638;SDS011;18248;51.522;7.020;2022-11-18T07:07:18;9.52;;;3.28;;
31638;SDS011;18248;51.522;7.020;2022-11-18T07:10:17;11.25;;;3.60;;
31638;SDS011;18248;51.522;7.020;2022-11-18T07:13:15;9.38;;;2.97;;
31638;SDS011;18248;51.522;7.020;2022-11-18T07:16:15;12.98;;;4.15;;
31638;SDS011;18248;51.522;7.020;2022-11-18T07:19:23;11.75;;;3.00;;
31638;SDS011;18248;51.522;7.020;2022-11-18T07:22:22;7.25;;;3.05;;
31638;SDS011;18248;51.522;7.020;2022-11-18T07:25:20;14.25;;;3.92;;
31638;SDS011;18248;51.522;7.020;2022-11-18T07:28:19;10.85;;;3.65;;
31638;SDS011;18248;51.522;7.020;2022-11-18T07:31:18;12.05;;;3.15;;
31638;SDS011;18248;51.522;7.020;2022-11-18T07:34:17;10.65;;;3.80;;
31638;SDS011;18248;51.522;7.020;2022-11-18T07:37:16;11.70;;;3.70;;
31638;SDS011;18248;51.522;7.020;2022-11-18T07:40:14;10.45;;;4.57;;
31638;SDS011;18248;51.522;7.020;2022-11-18T07:43:13;14.68;;;5.43;;
31638;SDS011;18248;51.522;7.020;2022-11-18T07:46:14;16.73;;;5.15;;
31638;SDS011;18248;51.522;7.020;2022-11-18T07:49:14;12.57;;;3.92;;
31638;SDS011;18248;51.522;7.020;2022-11-18T07:52:13;13.30;;;4.15;;
31638;SDS011;18248;51.522;7.020;2022-11-18T07:55:11;10.63;;;3.28;;
31638;SDS011;18248;51.522;7.020;2022-11-18T07:58:10;12.20;;;3.78;;
31638;SDS011;18248;51.522;7.020;2022-11-18T08:04:10;10.82;;;4.20;;
31638;SDS011;18248;51.522;7.020;2022-11-18T08:07:09;15.18;;;4.57;;
31638;SDS011;18248;51.522;7.020;2022-11-18T08:10:08;12.25;;;4.05;;
31638;SDS011;18248;51.522;7.020;2022-11-18T08:13:07;9.10;;;3.58;;
31638;SDS011;18248;51.522;7.020;2022-11-18T08:16:16;7.93;;;3.65;;
31638;SDS011;18248;51.522;7.020;2022-11-18T08:19:19;11.55;;;3.58;;
31638;SDS011;18248;51.522;7.020;2022-11-18T08:22:18;9.27;;;3.83;;
31638;SDS011;18248;51.522;7.020;2022-11-18T08:25:18;8.20;;;3.78;;
31638;SDS011;18248;51.522;7.020;2022-11-18T08:28:16;10.70;;;3.70;;
31638;SDS011;18248;51.522;7.020;2022-11-18T08:31:16;12.05;;;4.22;;
31638;SDS011;18248;51.522;7.020;2022-11-18T08:34:16;17.30;;;4.63;;
31638;SDS011;18248;51.522;7.020;2022-11-18T08:37:16;14.13;;;4.93;;
31638;SDS011;18248;51.522;7.020;2022-11-18T08:40:15;8.90;;;3.70;;
31638;SDS011;18248;51.522;7.020;2022-11-18T08:43:13;16.05;;;4.47;;
31638;SDS011;18248;51.522;7.020;2022-11-18T08:46:12;13.07;;;4.45;;
31638;SDS011;18248;51.522;7.020;2022-11-18T08:49:10;11.88;;;4.10;;
31638;SDS011;18248;51.522;7.020;2022-11-18T08:52:09;10.88;;;4.95;;
31638;SDS011;18248;51.522;7.020;2022-11-18T08:55:07;13.75;;;4.30;;
31638;SDS011;18248;51.522;7.020;2022-11-18T08:58:06;14.88;;;4.05;;
31638;SDS011;18248;51.522;7.020;2022-11-18T09:01:05;14.90;;;4.53;;
31638;SDS011;18248;51.522;7.020;2022-11-18T09:04:04;10.63;;;4.55;;
31638;SDS011;18248;51.522;7.020;2022-11-18T09:07:03;13.65;;;3.90;;
31638;SDS011;18248;51.522;7.020;2022-11-18T09:10:01;13.77;;;3.80;;
31638;SDS011;18248;51.522;7.020;2022-11-18T09:13:00;11.30;;;4.38;;
31638;SDS011;18248;51.522;7.020;2022-11-18T09:15:59;10.77;;;4.10;;
31638;SDS011;18248;51.522;7.020;2022-11-18T09:18:59;12.85;;;5.38;;
31638;SDS011;18248;51.522;7.020;2022-11-18T09:21:57;16.08;;;4.35;;
31638;SDS011;18248;51.522;7.020;2022-11-18T09:24:56;11.77;;;4.32;;
31638;SDS011;18248;51.522;7.020;2022-11-18T09:27:56;10.25;;;4.40;;
31638;SDS011;18248;51.522;7.020;2022-11-18T09:30:55;22.35;;;4.43;;
31638;SDS011;18248;51.522;7.020;2022-11-18T09:33:53;9.77;;;3.85;;
31638;SDS011;18248;51.522;7.020;2022-11-18T09:36:52;10.73;;;4.00;;
31638;SDS011;18248;51.522;7.020;2022-11-18T09:39:53;11.93;;;4.38;;
31638;SDS011;18248;51.522;7.020;2022-11-18T09:42:58;10.52;;;3.63;;
31638;SDS011;18248;51.522;7.020;2022-11-18T09:49:27;10.27;;;4.03;;
31638;SDS011;18248;51.522;7.020;2022-11-18T09:55:28;14.38;;;4.45;;
31638;SDS011;18248;51.522;7.020;2022-11-18T09:58:32;15.70;;;4.75;;
31638;SDS011;18248;51.522;7.020;2022-11-18T10:01:34;13.45;;;4.43;;
31638;SDS011;18248;51.522;7.020;2022-11-18T10:04:33;13.80;;;4.35;;
31638;SDS011;18248;51.522;7.020;2022-11-18T10:07:38;14.25;;;4.60;;
31638;SDS011;18248;51.522;7.020;2022-11-18T10:11:06;13.50;;;4.20;;
31638;SDS011;18248;51.522;7.020;2022-11-18T10:17:30;14.10;;;4.95;;
31638;SDS011;18248;51.522;7.020;2022-11-18T10:20:50;17.58;;;4.20;;
31638;SDS011;18248;51.522;7.020;2022-11-18T10:24:21;14.02;;;4.30;;
31638;SDS011;18248;51.522;7.020;2022-11-18T10:27:32;9.85;;;3.97;;
31638;SDS011;18248;51.522;7.020;2022-11-18T10:30:34;13.70;;;4.00;;
31638;SDS011;18248;51.522;7.020;2022-11-18T10:33:34;12.05;;;3.83;;
31638;SDS011;18248;51.522;7.020;2022-11-18T10:36:34;16.95;;;4.38;;
31638;SDS011;18248;51.522;7.020;2022-11-18T10:39:51;11.30;;;4.07;;
31638;SDS011;18248;51.522;7.020;2022-11-18T10:42:52;13.77;;;4.47;;
31638;SDS011;18248;51.522;7.020;2022-11-18T10:45:50;17.90;;;4.40;;
31638;SDS011;18248;51.522;7.020;2022-11-18T10:52:09;10.85;;;3.90;;
31638;SDS011;18248;51.522;7.020;2022-11-18T10:58:12;10.85;;;3.83;;
31638;SDS011;18248;51.522;7.020;2022-11-18T11:01:22;21.77;;;4.72;;
31638;SDS011;18248;51.522;7.020;2022-11-18T11:04:22;11.77;;;3.42;;
31638;SDS011;18248;51.522;7.020;2022-11-18T11:07:26;12.95;;;3.72;;
31638;SDS011;18248;51.522;7.020;2022-11-18T11:10:28;17.55;;;4.05;;
31638;SDS011;18248;51.522;7.020;2022-11-18T11:13:27;8.05;;;4.10;;
31638;SDS011;18248;51.522;7.020;2022-11-18T11:16:27;15.02;;;3.45;;
31638;SDS011;18248;51.522;7.020;2022-11-18T11:19:34;13.75;;;4.15;;
31638;SDS011;18248;51.522;7.020;2022-11-18T11:22:55;17.83;;;3.95;;
31638;SDS011;18248;51.522;7.020;2022-11-18T11:25:58;14.80;;;4.38;;
31638;SDS011;18248;51.522;7.020;2022-11-18T11:29:17;11.70;;;4.18;;
31638;SDS011;18248;51.522;7.020;2022-11-18T11:35:58;14.90;;;4.20;;
31638;SDS011;18248;51.522;7.020;2022-11-18T11:42:56;16.67;;;4.13;;
31638;SDS011;18248;51.522;7.020;2022-11-18T11:46:01;13.75;;;4.35;;
31638;SDS011;18248;51.522;7.020;2022-11-18T11:52:17;13.07;;;4.45;;
31638;SDS011;18248;51.522;7.020;2022-11-18T12:08:32;11.98;;;4.03;;
31638;SDS011;18248;51.522;7.020;2022-11-18T12:14:48;14.95;;;5.05;;
31638;SDS011;18248;51.522;7.020;2022-11-18T12:24:44;11.40;;;3.90;;
31638;SDS011;18248;51.522;7.020;2022-11-18T12:30:41;10.48;;;4.13;;
31638;SDS011;18248;51.522;7.020;2022-11-18T12:33:41;10.27;;;4.20;;
31638;SDS011;18248;51.522;7.020;2022-11-18T12:36:47;14.82;;;4.03;;
31638;SDS011;18248;51.522;7.020;2022-11-18T12:39:46;12.45;;;4.25;;
31638;SDS011;18248;51.522;7.020;2022-11-18T12:42:57;16.77;;;4.00;;
31638;SDS011;18248;51.522;7.020;2022-11-18T12:55:34;16.73;;;3.70;;
31638;SDS011;18248;51.522;7.020;2022-11-18T12:58:35;12.95;;;3.78;;
31638;SDS011;18248;51.522;7.020;2022-11-18T13:01:34;13.93;;;4.22;;
31638;SDS011;18248;51.522;7.020;2022-11-18T13:04:33;15.43;;;4.60;;
31638;SDS011;18248;51.522;7.020;2022-11-18T13:07:32;9.63;;;3.30;;
31638;SDS011;18248;51.522;7.020;2022-11-18T13:10:55;13.57;;;3.65;;
31638;SDS011;18248;51.522;7.020;2022-11-18T13:14:19;12.65;;;3.50;;
31638;SDS011;18248;51.522;7.020;2022-11-18T13:17:47;15.15;;;2.90;;
31638;SDS011;18248;51.522;7.020;2022-11-18T13:20:56;13.48;;;3.03;;
31638;SDS011;18248;51.522;7.020;2022-11-18T13:23:59;17.88;;;3.17;;
31638;SDS011;18248;51.522;7.020;2022-11-18T13:26:57;11.15;;;3.15;;
31638;SDS011;18248;51.522;7.020;2022-11-18T13:29:59;11.07;;;2.60;;
31638;SDS011;18248;51.522;7.020;2022-11-18T13:33:02;16.60;;;3.08;;
31638;SDS011;18248;51.522;7.020;2022-11-18T13:36:17;14.00;;;2.80;;
31638;SDS011;18248;51.522;7.020;2022-11-18T13:39:22;9.97;;;3.37;;
31638;SDS011;18248;51.522;7.020;2022-11-18T13:42:28;8.35;;;2.47;;
31638;SDS011;18248;51.522;7.020;2022-11-18T13:45:27;15.65;;;3.15;;
31638;SDS011;18248;51.522;7.020;2022-11-18T13:48:27;12.05;;;3.35;;
31638;SDS011;18248;51.522;7.020;2022-11-18T13:51:26;20.70;;;3.15;;
31638;SDS011;18248;51.522;7.020;2022-11-18T13:54:25;15.15;;;3.25;;
31638;SDS011;18248;51.522;7.020;2022-11-18T13:57:24;13.18;;;3.42;;
31638;SDS011;18248;51.522;7.020;2022-11-18T14:00:26;11.13;;;2.50;;
31638;SDS011;18248;51.522;7.020;2022-11-18T14:03:32;16.73;;;2.65;;
31638;SDS011;18248;51.522;7.020;2022-11-18T14:06:45;15.40;;;2.90;;
31638;SDS011;18248;51.522;7.020;2022-11-18T14:09:53;17.98;;;4.07;;
31638;SDS011;18248;51.522;7.020;2022-11-18T14:12:58;11.63;;;2.53;;
31638;SDS011;18248;51.522;7.020;2022-11-18T14:15:59;13.35;;;3.33;;
31638;SDS011;18248;51.522;7.020;2022-11-18T14:18:59;13.40;;;3.90;;
31638;SDS011;18248;51.522;7.020;2022-11-18T14:22:04;13.25;;;3.25;;
31638;SDS011;18248;51.522;7.020;2022-11-18T14:31:28;16.73;;;3.60;;
31638;SDS011;18248;51.522;7.020;2022-11-18T14:34:28;35.92;;;16.35;;
31638;SDS011;18248;51.522;7.020;2022-11-18T14:37:27;19.23;;;6.35;;
31638;SDS011;18248;51.522;7.020;2022-11-18T14:40:27;13.20;;;3.70;;
31638;SDS011;18248;51.522;7.020;2022-11-18T14:43:25;12.40;;;3.08;;
31638;SDS011;18248;51.522;7.020;2022-11-18T14:46:24;22.50;;;3.53;;
31638;SDS011;18248;51.522;7.020;2022-11-18T14:49:24;15.65;;;3.03;;
31638;SDS011;18248;51.522;7.020;2022-11-18T14:52:23;14.02;;;3.42;;
31638;SDS011;18248;51.522;7.020;2022-11-18T14:55:22;12.60;;;2.63;;
31638;SDS011;18248;51.522;7.020;2022-11-18T14:58:21;14.77;;;2.75;;
31638;SDS011;18248;51.522;7.020;2022-11-18T15:01:19;14.40;;;2.38;;
31638;SDS011;18248;51.522;7.020;2022-11-18T15:04:18;18.70;;;3.55;;
31638;SDS011;18248;51.522;7.020;2022-11-18T15:07:18;14.68;;;3.10;;
31638;SDS011;18248;51.522;7.020;2022-11-18T15:10:17;21.13;;;2.65;;
31638;SDS011;18248;51.522;7.020;2022-11-18T15:13:15;11.68;;;2.35;;
31638;SDS011;18248;51.522;7.020;2022-11-18T15:19:20;14.93;;;2.92;;
31638;SDS011;18248;51.522;7.020;2022-11-18T15:22:19;13.65;;;3.00;;
31638;SDS011;18248;51.522;7.020;2022-11-18T15:25:18;12.52;;;2.65;;
31638;SDS011;18248;51.522;7.020;2022-11-18T15:28:16;12.32;;;3.83;;
31638;SDS011;18248;51.522;7.020;2022-11-18T15:31:15;12.90;;;3.50;;
31638;SDS011;18248;51.522;7.020;2022-11-18T15:34:15;11.30;;;2.85;;
31638;SDS011;18248;51.522;7.020;2022-11-18T15:37:15;15.13;;;3.38;;
31638;SDS011;18248;51.522;7.020;2022-11-18T15:40:14;14.18;;;3.20;;
31638;SDS011;18248;51.522;7.020;2022-11-18T15:43:14;12.13;;;3.03;;
31638;SDS011;18248;51.522;7.020;2022-11-18T15:46:15;11.73;;;3.40;;
31638;SDS011;18248;51.522;7.020;2022-11-18T15:49:17;14.07;;;3.13;;
31638;SDS011;18248;51.522;7.020;2022-11-18T15:52:16;16.92;;;3.13;;
31638;SDS011;18248;51.522;7.020;2022-11-18T15:55:15;14.57;;;3.75;;
31638;SDS011;18248;51.522;7.020;2022-11-18T15:58:14;12.68;;;3.33;;
31638;SDS011;18248;51.522;7.020;2022-11-18T16:01:14;9.27;;;3.05;;
31638;SDS011;18248;51.522;7.020;2022-11-18T16:04:13;14.68;;;3.38;;
31638;SDS011;18248;51.522;7.020;2022-11-18T16:07:13;11.80;;;3.28;;
31638;SDS011;18248;51.522;7.020;2022-11-18T16:10:13;12.95;;;3.30;;
31638;SDS011;18248;51.522;7.020;2022-11-18T16:13:30;10.60;;;3.10;;
31638;SDS011;18248;51.522;7.020;2022-11-18T16:16:29;12.55;;;2.80;;
31638;SDS011;18248;51.522;7.020;2022-11-18T16:19:28;6.93;;;3.10;;
31638;SDS011;18248;51.522;7.020;2022-11-18T16:22:30;8.15;;;2.90;;
31638;SDS011;18248;51.522;7.020;2022-11-18T16:25:29;9.45;;;2.97;;
31638;SDS011;18248;51.522;7.020;2022-11-18T16:28:27;11.90;;;4.15;;
31638;SDS011;18248;51.522;7.020;2022-11-18T16:31:26;15.75;;;4.05;;
31638;SDS011;18248;51.522;7.020;2022-11-18T16:34:37;9.65;;;3.55;;
31638;SDS011;18248;51.522;7.020;2022-11-18T16:37:35;21.42;;;4.78;;
31638;SDS011;18248;51.522;7.020;2022-11-18T16:40:34;16.00;;;3.63;;
31638;SDS011;18248;51.522;7.020;2022-11-18T16:43:32;10.93;;;3.55;;
31638;SDS011;18248;51.522;7.020;2022-11-18T16:46:31;12.15;;;4.18;;
31638;SDS011;18248;51.522;7.020;2022-11-18T16:49:31;13.35;;;3.47;;
31638;SDS011;18248;51.522;7.020;2022-11-18T16:52:30;13.82;;;3.60;;
31638;SDS011;18248;51.522;7.020;2022-11-18T16:55:28;12.88;;;3.65;;
31638;SDS011;18248;51.522;7.020;2022-11-18T16:58:27;14.63;;;4.03;;
31638;SDS011;18248;51.522;7.020;2022-11-18T17:01:25;18.83;;;4.63;;
31638;SDS011;18248;51.522;7.020;2022-11-18T17:04:25;19.10;;;3.90;;
31638;SDS011;18248;51.522;7.020;2022-11-18T17:07:25;16.88;;;4.50;;
31638;SDS011;18248;51.522;7.020;2022-11-18T17:10:23;15.88;;;3.83;;
31638;SDS011;18248;51.522;7.020;2022-11-18T17:13:23;13.65;;;3.42;;
31638;SDS011;18248;51.522;7.020;2022-11-18T17:16:22;14.10;;;4.00;;
31638;SDS011;18248;51.522;7.020;2022-11-18T17:19:22;21.30;;;5.43;;
31638;SDS011;18248;51.522;7.020;2022-11-18T17:22:21;13.13;;;5.15;;
31638;SDS011;18248;51.522;7.020;2022-11-18T17:25:20;17.77;;;8.63;;
31638;SDS011;18248;51.522;7.020;2022-11-18T17:28:19;21.27;;;11.10;;
31638;SDS011;18248;51.522;7.020;2022-11-18T17:31:19;27.50;;;14.48;;
31638;SDS011;18248;51.522;7.020;2022-11-18T17:34:19;21.33;;;14.85;;
31638;SDS011;18248;51.522;7.020;2022-11-18T17:37:18;22.17;;;14.35;;
31638;SDS011;18248;51.522;7.020;2022-11-18T17:40:18;25.52;;;16.90;;
31638;SDS011;18248;51.522;7.020;2022-11-18T17:43:16;25.02;;;15.35;;
31638;SDS011;18248;51.522;7.020;2022-11-18T17:46:15;23.27;;;16.23;;
31638;SDS011;18248;51.522;7.020;2022-11-18T17:49:14;25.15;;;17.00;;
31638;SDS011;18248;51.522;7.020;2022-11-18T17:52:21;26.27;;;17.08;;
31638;SDS011;18248;51.522;7.020;2022-11-18T17:55:19;25.90;;;18.85;;
31638;SDS011;18248;51.522;7.020;2022-11-18T17:58:18;25.60;;;19.38;;
31638;SDS011;18248;51.522;7.020;2022-11-18T18:01:17;27.80;;;19.67;;
31638;SDS011;18248;51.522;7.020;2022-11-18T18:04:17;26.80;;;19.25;;
31638;SDS011;18248;51.522;7.020;2022-11-18T18:07:18;29.45;;;20.75;;
31638;SDS011;18248;51.522;7.020;2022-11-18T18:10:16;29.73;;;19.27;;
31638;SDS011;18248;51.522;7.020;2022-11-18T18:13:16;26.60;;;17.67;;
31638;SDS011;18248;51.522;7.020;2022-11-18T18:16:33;25.77;;;17.75;;
31638;SDS011;18248;51.522;7.020;2022-11-18T18:19:31;26.27;;;17.33;;
31638;SDS011;18248;51.522;7.020;2022-11-18T18:22:30;23.38;;;16.20;;
31638;SDS011;18248;51.522;7.020;2022-11-18T18:25:29;26.67;;;18.58;;
31638;SDS011;18248;51.522;7.020;2022-11-18T18:28:27;28.17;;;18.30;;
31638;SDS011;18248;51.522;7.020;2022-11-18T18:31:26;24.80;;;15.75;;
31638;SDS011;18248;51.522;7.020;2022-11-18T18:34:25;23.98;;;15.57;;
31638;SDS011;18248;51.522;7.020;2022-11-18T18:37:24;29.58;;;18.27;;
31638;SDS011;18248;51.522;7.020;2022-11-18T18:40:23;25.58;;;16.88;;
31638;SDS011;18248;51.522;7.020;2022-11-18T18:43:21;24.10;;;15.10;;
31638;SDS011;18248;51.522;7.020;2022-11-18T18:46:21;26.88;;;18.48;;
31638;SDS011;18248;51.522;7.020;2022-11-18T18:49:31;29.30;;;18.02;;
31638;SDS011;18248;51.522;7.020;2022-11-18T18:52:29;27.10;;;19.05;;
31638;SDS011;18248;51.522;7.020;2022-11-18T18:55:29;34.17;;;20.95;;
31638;SDS011;18248;51.522;7.020;2022-11-18T18:58:27;25.58;;;17.75;;
31638;SDS011;18248;51.522;7.020;2022-11-18T19:01:26;25.15;;;17.23;;
31638;SDS011;18248;51.522;7.020;2022-11-18T19:04:27;28.63;;;19.40;;
31638;SDS011;18248;51.522;7.020;2022-11-18T19:07:26;27.42;;;17.80;;
31638;SDS011;18248;51.522;7.020;2022-11-18T19:10:25;28.70;;;19.75;;
31638;SDS011;18248;51.522;7.020;2022-11-18T19:13:26;26.85;;;17.75;;
31638;SDS011;18248;51.522;7.020;2022-11-18T19:16:25;29.25;;;18.40;;
31638;SDS011;18248;51.522;7.020;2022-11-18T19:19:27;32.05;;;19.13;;
31638;SDS011;18248;51.522;7.020;2022-11-18T19:22:45;33.20;;;21.67;;
31638;SDS011;18248;51.522;7.020;2022-11-18T19:25:44;34.30;;;20.33;;
31638;SDS011;18248;51.522;7.020;2022-11-18T19:28:42;36.97;;;23.42;;
31638;SDS011;18248;51.522;7.020;2022-11-18T19:31:41;37.70;;;22.63;;
31638;SDS011;18248;51.522;7.020;2022-11-18T19:34:41;35.92;;;22.08;;
31638;SDS011;18248;51.522;7.020;2022-11-18T19:37:39;35.00;;;22.77;;
31638;SDS011;18248;51.522;7.020;2022-11-18T19:40:38;36.83;;;22.63;;
31638;SDS011;18248;51.522;7.020;2022-11-18T19:43:37;39.45;;;23.75;;
31638;SDS011;18248;51.522;7.020;2022-11-18T19:46:36;44.70;;;24.00;;